Time;durP1;ratioP1;P1;durP2;ratioP2;P2;SDS_P1;SDS_P2;PMS_P1;PMS_P2;Temp;Humidity;BMP_temperature;BMP_pressure;BME280_temperature;BME280_humidity;BME280_pressure;Samples;Min_cycle;Max_cycle;Signal;HPM_P1;HPM_P2
2021/09/17 00:02:20;;;;;;;11.45;7.20;;;;;;;21.27;53.71;99890.72;5042671;28;20310;-77
2021/09/17 00:04:46;;;;;;;19.55;8.15;;;;;;;21.20;53.83;99886.44;5044012;28;20029;-77
2021/09/17 00:07:11;;;;;;;12.77;7.50;;;;;;;21.16;53.93;99885.25;5040137;28;20048;-77
2021/09/17 00:09:37;;;;;;;12.25;8.20;;;;;;;21.19;54.04;99887.47;5025017;28;20029;-77
2021/09/17 00:12:03;;;;;;;12.88;8.00;;;;;;;21.19;53.82;99882.09;5021967;28;20033;-77
2021/09/17 00:14:29;;;;;;;11.70;7.95;;;;;;;21.17;53.50;99876.94;5025180;28;20049;-77
2021/09/17 00:16:54;;;;;;;16.02;8.65;;;;;;;21.20;53.77;99884.56;5024162;28;20037;-77
2021/09/17 00:19:20;;;;;;;12.13;9.23;;;;;;;21.28;53.53;99886.16;5023064;28;20335;-77
2021/09/17 00:21:45;;;;;;;15.38;9.00;;;;;;;21.35;53.26;99882.31;5024997;28;20338;-77
2021/09/17 00:24:11;;;;;;;14.98;8.60;;;;;;;21.51;53.27;99888.09;5036823;28;20045;-77
2021/09/17 00:26:36;;;;;;;14.65;9.00;;;;;;;21.48;53.04;99892.06;5043329;28;20323;-77
2021/09/17 00:29:02;;;;;;;14.57;9.20;;;;;;;21.47;52.98;99878.81;5032303;28;20036;-77
2021/09/17 00:31:27;;;;;;;10.38;7.82;;;;;;;21.46;52.94;99878.00;5023820;28;20029;-77
2021/09/17 00:33:53;;;;;;;14.20;8.85;;;;;;;21.46;52.73;99879.88;5037259;28;20033;-77
2021/09/17 00:36:18;;;;;;;13.05;8.32;;;;;;;21.45;52.96;99883.63;5043287;28;20070;-77
2021/09/17 00:38:44;;;;;;;13.43;8.13;;;;;;;21.42;53.03;99889.47;5041148;28;20037;-77
2021/09/17 00:41:11;;;;;;;13.52;8.13;;;;;;;21.38;52.76;99869.44;5041036;28;20226;-77
2021/09/17 00:43:38;;;;;;;10.38;7.90;;;;;;;21.26;53.19;99878.28;5042834;28;20270;-77
2021/09/17 00:46:04;;;;;;;14.13;8.60;;;;;;;21.32;53.48;99890.03;5040011;28;20279;-77
2021/09/17 00:48:29;;;;;;;12.50;8.30;;;;;;;21.29;53.35;99875.13;5043382;28;20069;-77
2021/09/17 00:50:55;;;;;;;12.48;8.30;;;;;;;21.08;53.84;99869.41;5037908;28;20049;-77
2021/09/17 00:53:20;;;;;;;15.35;8.52;;;;;;;20.74;55.17;99874.34;5024515;28;20068;-77
2021/09/17 00:55:46;;;;;;;15.60;8.88;;;;;;;20.58;55.98;99874.94;5024480;28;20065;-77
2021/09/17 00:58:11;;;;;;;17.92;9.32;;;;;;;20.53;56.58;99881.00;5023189;28;20042;-77
2021/09/17 01:00:37;;;;;;;11.85;8.13;;;;;;;20.43;57.15;99886.06;5023247;28;20059;-77
2021/09/17 01:03:02;;;;;;;13.50;8.20;;;;;;;20.41;57.27;99877.41;5023566;28;20042;-77
2021/09/17 01:05:28;;;;;;;16.55;8.10;;;;;;;20.53;57.28;99881.00;5024363;28;20038;-77
2021/09/17 01:07:53;;;;;;;14.85;8.32;;;;;;;20.77;57.18;99890.03;5023808;28;20108;-77
2021/09/17 01:10:19;;;;;;;10.95;8.30;;;;;;;20.81;56.87;99877.00;5022605;28;20026;-77
2021/09/17 01:12:45;;;;;;;18.13;7.72;;;;;;;21.00;56.66;99895.59;5022716;28;20037;-77
2021/09/17 01:15:13;;;;;;;13.75;8.10;;;;;;;21.08;56.29;99882.88;5040851;28;20025;-77
2021/09/17 01:17:41;;;;;;;12.20;8.10;;;;;;;21.10;56.27;99884.28;5036074;28;20034;-77
2021/09/17 01:20:10;;;;;;;14.88;8.05;;;;;;;20.94;56.62;99866.88;5023012;28;20311;-77
2021/09/17 01:22:36;;;;;;;16.42;7.85;;;;;;;20.92;56.98;99862.78;5039690;28;20053;-77
2021/09/17 01:25:05;;;;;;;18.02;7.95;;;;;;;21.00;57.20;99865.16;5039900;28;20330;-77
2021/09/17 01:27:31;;;;;;;11.70;7.38;;;;;;;20.98;57.41;99878.00;5025452;28;20240;-76
2021/09/17 01:29:57;;;;;;;12.75;8.20;;;;;;;20.97;57.59;99863.75;5023668;28;20029;-77
2021/09/17 01:32:23;;;;;;;11.48;8.85;;;;;;;20.92;57.71;99863.59;5022502;28;20093;-77
2021/09/17 01:34:48;;;;;;;13.20;7.97;;;;;;;21.01;57.66;99869.47;5041758;28;20033;-77
2021/09/17 01:37:14;;;;;;;16.42;8.43;;;;;;;20.87;58.05;99860.75;5039365;28;20033;-77
2021/09/17 01:39:39;;;;;;;13.98;7.78;;;;;;;20.83;58.72;99856.88;5040962;28;20230;-77
2021/09/17 01:42:05;;;;;;;12.15;7.55;;;;;;;20.70;59.53;99855.13;5037535;28;20036;-77
2021/09/17 01:44:36;;;;;;;14.25;7.50;;;;;;;20.63;59.64;99848.19;5023215;28;20057;-77
2021/09/17 01:47:01;;;;;;;13.85;8.05;;;;;;;20.70;59.74;99851.63;5023978;28;20089;-77
2021/09/17 01:49:27;;;;;;;10.40;7.10;;;;;;;20.80;59.45;99838.47;5032006;28;20490;-77
2021/09/17 01:51:53;;;;;;;16.15;8.35;;;;;;;20.89;59.05;99837.13;5041628;28;20037;-77
2021/09/17 01:54:19;;;;;;;15.07;7.85;;;;;;;20.94;58.44;99834.59;5033870;28;20335;-77
2021/09/17 01:56:44;;;;;;;13.88;7.97;;;;;;;20.79;58.73;99827.91;5021341;28;20079;-77
2021/09/17 01:59:10;;;;;;;11.48;7.68;;;;;;;20.51;59.58;99815.03;5026192;28;20132;-77
2021/09/17 02:01:35;;;;;;;17.60;8.68;;;;;;;20.30;60.01;99818.94;5042099;28;20048;-77
2021/09/17 02:04:01;;;;;;;12.70;8.48;;;;;;;20.12;60.81;99832.38;5027665;28;20304;-77
2021/09/17 02:06:27;;;;;;;13.23;8.20;;;;;;;20.05;61.55;99843.19;5022142;28;20026;-77
2021/09/17 02:08:53;;;;;;;12.98;8.23;;;;;;;20.03;61.50;99856.84;5033925;28;20049;-77
2021/09/17 02:11:18;;;;;;;14.80;8.90;;;;;;;19.92;62.23;99852.19;5041114;28;20060;-77
2021/09/17 02:13:44;;;;;;;11.73;7.93;;;;;;;20.22;61.73;99851.50;5023840;28;20073;-77
2021/09/17 02:16:10;;;;;;;13.05;8.60;;;;;;;20.42;61.09;99841.38;5021674;28;20030;-77
2021/09/17 02:18:36;;;;;;;16.60;9.32;;;;;;;20.35;61.22;99838.75;5023037;28;20042;-77
2021/09/17 02:21:02;;;;;;;12.85;9.45;;;;;;;20.18;61.98;99831.47;5021732;28;20064;-77
2021/09/17 02:23:28;;;;;;;14.20;9.13;;;;;;;20.25;61.97;99825.00;5034760;28;20033;-77
2021/09/17 02:25:53;;;;;;;24.80;10.30;;;;;;;20.07;62.40;99824.97;5041923;28;20069;-76
2021/09/17 02:28:18;;;;;;;25.17;11.00;;;;;;;19.94;62.54;99823.22;5039747;28;20100;-77
2021/09/17 02:30:44;;;;;;;15.10;10.27;;;;;;;19.90;62.71;99840.03;5040420;28;20286;-77
2021/09/17 02:33:10;;;;;;;19.02;11.20;;;;;;;19.73;63.15;99832.47;5041577;28;20037;-77
2021/09/17 02:35:36;;;;;;;15.88;10.93;;;;;;;19.83;63.29;99845.44;5038857;28;20036;-77
2021/09/17 02:38:01;;;;;;;16.55;11.07;;;;;;;20.04;62.43;99837.00;5023486;28;20038;-77
2021/09/17 02:40:28;;;;;;;22.02;11.57;;;;;;;20.11;61.91;99839.63;5028560;28;20017;-77
2021/09/17 02:42:54;;;;;;;18.42;10.50;;;;;;;20.37;60.61;99820.50;5041622;28;20042;-77
2021/09/17 02:45:19;;;;;;;21.05;11.85;;;;;;;20.46;60.42;99833.69;5035918;28;20052;-77
2021/09/17 02:47:45;;;;;;;16.40;10.63;;;;;;;20.39;60.16;99815.75;5022576;28;20038;-77
2021/09/17 02:50:11;;;;;;;26.48;11.88;;;;;;;20.46;60.43;99828.31;5022894;28;20076;-77
2021/09/17 02:52:37;;;;;;;21.52;12.70;;;;;;;20.40;60.36;99808.53;5024042;28;20042;-77
2021/09/17 02:55:04;;;;;;;23.98;11.57;;;;;;;20.29;60.47;99823.50;5040945;28;20213;-77
2021/09/17 02:57:29;;;;;;;17.83;10.63;;;;;;;20.02;60.98;99806.00;5021802;28;20311;-77
2021/09/17 02:59:55;;;;;;;16.88;11.23;;;;;;;19.83;61.98;99817.75;5024070;28;20022;-77
2021/09/17 03:02:20;;;;;;;20.23;11.95;;;;;;;19.68;62.99;99823.44;5023438;28;20038;-77
2021/09/17 03:04:46;;;;;;;19.40;11.20;;;;;;;19.74;63.42;99825.25;5026425;28;20025;-77
2021/09/17 03:07:11;;;;;;;20.77;12.02;;;;;;;19.89;62.84;99825.75;5044218;28;20044;-77
2021/09/17 03:09:37;;;;;;;17.23;11.23;;;;;;;20.00;62.46;99816.97;5027681;28;20078;-77
2021/09/17 03:12:03;;;;;;;15.68;10.90;;;;;;;20.09;62.47;99814.81;5024989;28;20041;-77
2021/09/17 03:14:28;;;;;;;19.65;11.95;;;;;;;20.16;62.39;99820.94;5024894;28;20370;-77
2021/09/17 03:16:54;;;;;;;21.65;11.75;;;;;;;20.19;62.13;99812.44;5036879;28;20033;-77
2021/09/17 03:19:19;;;;;;;22.67;9.77;;;;;;;20.27;61.55;99819.38;5044418;28;20045;-77
2021/09/17 03:21:45;;;;;;;19.38;11.23;;;;;;;20.07;61.60;99782.78;5043026;28;20036;-77
2021/09/17 03:24:11;;;;;;;22.20;11.85;;;;;;;20.22;61.66;99808.47;5044983;28;20361;-77
2021/09/17 03:26:37;;;;;;;16.88;11.60;;;;;;;20.05;62.56;99819.81;5011921;28;20335;-77
2021/09/17 03:29:03;;;;;;;19.52;11.82;;;;;;;20.09;62.65;99820.19;5038394;28;20044;-77
2021/09/17 03:31:28;;;;;;;21.25;11.73;;;;;;;20.16;62.39;99814.75;5043904;28;20045;-77
2021/09/17 03:33:54;;;;;;;20.88;12.23;;;;;;;20.18;61.90;99810.78;5026601;28;20042;-77
2021/09/17 03:36:20;;;;;;;21.75;12.38;;;;;;;20.16;61.59;99812.06;5006111;28;20028;-77
2021/09/17 03:38:45;;;;;;;25.70;12.15;;;;;;;20.03;62.21;99819.22;5008399;28;20393;-76
2021/09/17 03:41:11;;;;;;;17.00;11.90;;;;;;;19.88;62.76;99809.84;5022976;28;20068;-77
2021/09/17 03:43:36;;;;;;;22.20;12.52;;;;;;;19.94;62.52;99801.72;5038362;28;20067;-76
2021/09/17 03:46:02;;;;;;;33.53;13.20;;;;;;;20.02;62.29;99806.81;5044569;28;20358;-77
2021/09/17 03:48:27;;;;;;;37.97;12.48;;;;;;;20.04;62.59;99807.41;5032076;28;20109;-77
2021/09/17 03:50:53;;;;;;;26.80;11.50;;;;;;;19.99;61.74;99814.50;5023736;28;20072;-77
2021/09/17 03:53:19;;;;;;;28.80;12.40;;;;;;;19.93;61.77;99810.00;5026114;28;20045;-76
2021/09/17 03:55:44;;;;;;;33.75;12.63;;;;;;;19.87;61.83;99821.66;5023840;28;20080;-77
2021/09/17 03:58:12;;;;;;;31.17;13.18;;;;;;;19.70;62.78;99816.78;5025541;28;20299;-77
2021/09/17 04:00:38;;;;;;;31.65;12.38;;;;;;;19.66;63.07;99820.16;5029084;28;20075;-77
2021/09/17 04:03:04;;;;;;;31.08;12.60;;;;;;;19.56;63.40;99822.50;5044256;28;20033;-77
2021/09/17 04:05:30;;;;;;;21.42;11.80;;;;;;;19.54;63.61;99814.66;5042175;28;20057;-77
2021/09/17 04:07:55;;;;;;;17.30;12.25;;;;;;;19.62;63.31;99819.75;5042775;28;20029;-77
2021/09/17 04:10:21;;;;;;;21.50;11.95;;;;;;;19.69;62.92;99823.22;5042439;28;20129;-77
2021/09/17 04:12:47;;;;;;;22.67;12.15;;;;;;;19.64;63.24;99822.22;5042822;28;20088;-77
2021/09/17 04:15:14;;;;;;;22.42;11.60;;;;;;;19.68;63.25;99831.50;5040988;28;20025;-77
2021/09/17 04:17:40;;;;;;;27.48;12.27;;;;;;;19.67;63.20;99827.97;5043273;28;20085;-77
2021/09/17 04:20:06;;;;;;;30.33;12.13;;;;;;;19.86;62.78;99833.44;5043429;28;20042;-77
2021/09/17 04:22:32;;;;;;;29.70;12.23;;;;;;;19.89;62.12;99816.88;5042579;28;20172;-77
2021/09/17 04:24:57;;;;;;;35.47;13.95;;;;;;;19.92;62.79;99817.25;5043631;28;20343;-77
2021/09/17 04:27:26;;;;;;;40.50;13.70;;;;;;;20.02;62.23;99819.44;5042191;28;20052;-77
2021/09/17 04:29:53;;;;;;;37.63;12.32;;;;;;;20.05;62.93;99821.69;5042042;28;20033;-77
2021/09/17 04:32:18;;;;;;;37.92;12.18;;;;;;;20.10;63.07;99827.22;5043603;28;20104;-77
2021/09/17 04:34:44;;;;;;;46.60;12.55;;;;;;;20.17;62.59;99821.78;5031263;28;20026;-77
2021/09/17 04:37:09;;;;;;;41.90;13.25;;;;;;;19.89;62.40;99795.38;5023627;28;20193;-77
2021/09/17 04:39:35;;;;;;;27.20;11.25;;;;;;;20.03;63.35;99821.91;5023915;28;20274;-77
2021/09/17 04:42:01;;;;;;;24.83;12.18;;;;;;;19.95;65.85;99822.19;5023660;28;20026;-77
2021/09/17 04:44:26;;;;;;;28.27;13.77;;;;;;;19.86;66.79;99820.81;5029091;28;20204;-77
2021/09/17 04:46:52;;;;;;;22.45;13.02;;;;;;;19.88;66.50;99820.59;5043710;28;20092;-77
2021/09/17 04:49:18;;;;;;;41.80;13.60;;;;;;;19.94;64.49;99822.41;5040709;28;20047;-77
2021/09/17 04:51:43;;;;;;;33.22;13.52;;;;;;;19.86;64.56;99807.38;5043339;28;20037;-77
2021/09/17 04:54:10;;;;;;;47.90;14.65;;;;;;;20.05;63.96;99816.31;5041669;28;20036;-76
2021/09/17 04:56:38;;;;;;;34.28;14.20;;;;;;;20.23;64.09;99829.78;5024205;28;20230;-77
2021/09/17 04:59:04;;;;;;;35.25;13.88;;;;;;;20.14;64.06;99828.41;5030621;28;20073;-77
2021/09/17 05:01:29;;;;;;;26.40;11.50;;;;;;;20.00;63.77;99808.91;5023472;28;20063;-77
2021/09/17 05:03:55;;;;;;;28.85;13.07;;;;;;;20.16;63.28;99823.63;5036598;28;20061;-77
2021/09/17 05:06:20;;;;;;;69.93;14.65;;;;;;;20.21;63.08;99812.22;5031591;28;20029;-77
2021/09/17 05:08:46;;;;;;;31.50;12.75;;;;;;;20.32;62.63;99828.44;5022508;28;20060;-77
2021/09/17 05:11:11;;;;;;;39.50;13.38;;;;;;;20.31;62.55;99816.03;5031158;28;20060;-77
2021/09/17 05:13:37;;;;;;;37.33;13.73;;;;;;;20.51;62.16;99829.28;5035853;28;20312;-77
2021/09/17 05:16:02;;;;;;;34.38;14.52;;;;;;;20.65;61.31;99827.25;5025069;28;20018;-77
2021/09/17 05:18:28;;;;;;;28.77;13.48;;;;;;;20.80;60.83;99824.19;5042440;28;20168;-77
2021/09/17 05:20:53;;;;;;;41.58;14.07;;;;;;;20.84;60.16;99830.78;5036933;28;20037;-77
2021/09/17 05:23:19;;;;;;;23.80;12.73;;;;;;;20.97;59.96;99827.91;5031268;28;20108;-77
2021/09/17 05:25:44;;;;;;;26.92;12.50;;;;;;;21.02;60.38;99833.44;5043171;28;20037;-77
2021/09/17 05:28:10;;;;;;;25.73;12.80;;;;;;;20.93;59.93;99827.56;5025719;28;20021;-77
2021/09/17 05:30:35;;;;;;;32.83;13.40;;;;;;;21.14;59.70;99834.31;5045631;28;20029;-77
2021/09/17 05:33:02;;;;;;;28.17;11.98;;;;;;;21.31;58.98;99838.03;5057735;28;20045;-77
2021/09/17 05:35:28;;;;;;;19.17;12.40;;;;;;;21.45;58.01;99833.25;5052974;28;20038;-77
2021/09/17 05:37:53;;;;;;;20.05;11.98;;;;;;;21.71;57.96;99841.97;5042025;28;20048;-77
2021/09/17 05:40:18;;;;;;;20.95;11.60;;;;;;;22.07;56.51;99843.72;5042388;28;20028;-77
2021/09/17 05:42:44;;;;;;;23.58;11.68;;;;;;;22.35;54.80;99840.28;5042590;28;20079;-77
2021/09/17 05:45:10;;;;;;;18.60;11.27;;;;;;;22.38;54.00;99827.16;5040966;28;20207;-77
2021/09/17 05:47:35;;;;;;;19.33;11.65;;;;;;;22.56;53.46;99831.56;5024418;28;20064;-78
2021/09/17 05:50:01;;;;;;;22.02;11.18;;;;;;;22.38;54.54;99831.72;5041818;28;20041;-77
2021/09/17 05:52:26;;;;;;;16.83;10.38;;;;;;;22.24;55.52;99831.97;5042321;28;20033;-77
2021/09/17 05:54:52;;;;;;;16.50;10.93;;;;;;;21.92;56.07;99831.47;5041156;28;20053;-77
2021/09/17 05:57:17;;;;;;;19.00;11.95;;;;;;;21.61;57.50;99816.44;5040764;28;20262;-77
2021/09/17 05:59:43;;;;;;;24.58;11.73;;;;;;;21.58;58.27;99837.63;5040889;28;20037;-77
2021/09/17 06:02:08;;;;;;;14.18;10.85;;;;;;;21.65;58.03;99832.94;5040823;28;20054;-77
2021/09/17 06:04:37;;;;;;;18.35;10.27;;;;;;;21.64;58.22;99826.75;5040904;28;20029;-77
2021/09/17 06:07:03;;;;;;;28.88;11.57;;;;;;;21.84;57.71;99833.66;5041088;28;20032;-78
2021/09/17 06:09:28;;;;;;;14.50;9.90;;;;;;;21.90;57.20;99838.16;5040562;28;20093;-77
2021/09/17 06:11:54;;;;;;;13.35;10.10;;;;;;;21.82;57.61;99846.56;5040840;28;20315;-77
2021/09/17 06:14:20;;;;;;;17.02;9.75;;;;;;;21.79;57.62;99837.06;5042330;28;20354;-77
2021/09/17 06:16:45;;;;;;;15.95;10.30;;;;;;;21.95;56.92;99847.19;5022969;28;20331;-76
2021/09/17 06:19:10;;;;;;;17.33;9.88;;;;;;;22.08;56.50;99848.03;5040977;28;20041;-77
2021/09/17 06:21:36;;;;;;;17.25;10.10;;;;;;;22.18;56.02;99851.81;5038643;28;20250;-77
2021/09/17 06:24:02;;;;;;;17.77;10.15;;;;;;;22.16;56.10;99845.81;5040324;28;20377;-77
2021/09/17 06:26:31;;;;;;;17.35;10.18;;;;;;;22.19;56.27;99831.88;5040737;28;20088;-77
2021/09/17 06:29:02;;;;;;;18.58;9.98;;;;;;;22.45;55.84;99852.13;5041313;28;20037;-78
2021/09/17 06:31:28;;;;;;;18.42;10.38;;;;;;;22.79;54.75;99857.69;5040164;28;20036;-76
2021/09/17 06:33:54;;;;;;;14.55;9.55;;;;;;;22.88;54.42;99857.09;5040752;28;20045;-77
2021/09/17 06:36:19;;;;;;;21.30;9.68;;;;;;;22.81;54.01;99825.91;5040656;28;20033;-77
2021/09/17 06:38:45;;;;;;;14.43;10.40;;;;;;;22.87;54.56;99827.63;5023796;28;20245;-77
2021/09/17 06:41:11;;;;;;;16.33;9.65;;;;;;;23.12;53.33;99838.16;5044643;28;20365;-77
2021/09/17 06:43:36;;;;;;;14.70;9.13;;;;;;;23.03;54.32;99834.19;5044618;28;20087;-77
2021/09/17 06:46:02;;;;;;;19.42;10.40;;;;;;;23.02;53.79;99840.66;5044265;28;20064;-77
2021/09/17 06:48:28;;;;;;;14.13;10.35;;;;;;;22.74;54.90;99847.59;5044335;28;20044;-77
2021/09/17 06:50:53;;;;;;;19.40;10.13;;;;;;;22.65;55.13;99840.94;5044810;28;20049;-77
2021/09/17 06:53:19;;;;;;;18.40;10.65;;;;;;;22.58;55.25;99854.56;5041453;28;20030;-77
2021/09/17 06:55:44;;;;;;;14.98;10.70;;;;;;;22.57;56.02;99860.19;5026625;28;20022;-77
2021/09/17 06:58:10;;;;;;;15.68;10.38;;;;;;;22.56;56.17;99858.56;5044320;28;20113;-77
2021/09/17 07:00:36;;;;;;;17.08;10.80;;;;;;;;;;5026053;28;20018;-77
2021/09/17 07:03:02;;;;;;;15.57;10.68;;;;;;;22.76;55.28;99842.78;5044489;28;20029;-77
2021/09/17 07:05:29;;;;;;;14.40;9.88;;;;;;;22.62;55.12;99815.25;5043819;28;20041;-76
2021/09/17 07:08:04;;;;;;;19.05;10.27;;;;;;;22.65;56.23;99821.22;5043855;28;20034;-76
2021/09/17 07:10:31;;;;;;;16.10;10.60;;;;;;;22.67;55.76;99836.13;5041900;28;20327;-77
2021/09/17 07:12:57;;;;;;;21.75;11.27;;;;;;;22.75;55.60;99834.94;5043787;28;20026;-77
2021/09/17 07:15:22;;;;;;;22.58;13.13;;;;;;;22.74;55.07;99823.31;5043825;28;20053;-78
2021/09/17 07:17:48;;;;;;;20.52;13.23;;;;;;;22.54;56.59;99823.72;5044111;28;20041;-78
2021/09/17 07:20:13;;;;;;;23.00;13.27;;;;;;;22.27;57.23;99822.59;5043774;28;20310;-78
2021/09/17 07:22:39;;;;;;;16.33;12.00;;;;;;;22.33;57.46;99826.22;5042292;28;20041;-77
2021/09/17 07:25:05;;;;;;;22.15;14.13;;;;;;;22.50;56.56;99821.72;5043770;28;20025;-77
2021/09/17 07:27:31;;;;;;;22.92;15.02;;;;;;;22.47;57.48;99814.13;5043771;28;20044;-77
2021/09/17 07:29:57;;;;;;;24.42;12.18;;;;;;;22.50;56.36;99803.66;5043547;28;20021;-77
2021/09/17 07:32:22;;;;;;;25.83;14.95;;;;;;;22.55;56.73;99819.97;5026081;28;20022;-78
2021/09/17 07:34:48;;;;;;;21.38;11.85;;;;;;;22.33;57.84;99815.44;5043606;28;20051;-77
2021/09/17 07:37:13;;;;;;;23.30;11.63;;;;;;;22.34;57.54;99806.28;5025640;28;20033;-77
2021/09/17 07:39:39;;;;;;;27.13;13.10;;;;;;;22.30;57.31;99816.72;5043476;28;20044;-77
2021/09/17 07:42:04;;;;;;;27.15;15.07;;;;;;;22.40;57.04;99810.72;5043677;28;20071;-77
2021/09/17 07:44:31;;;;;;;21.85;11.90;;;;;;;;;;5043166;28;20071;-77
2021/09/17 07:46:57;;;;;;;17.45;10.88;;;;;;;22.49;56.78;99815.50;5043824;28;20025;-77
2021/09/17 07:49:23;;;;;;;21.33;11.65;;;;;;;22.45;57.72;99816.22;5042674;28;20184;-77
2021/09/17 07:51:48;;;;;;;26.48;14.98;;;;;;;23.03;56.26;99793.69;5042621;28;20044;-77
2021/09/17 07:54:14;;;;;;;20.35;11.30;;;;;;;23.34;55.79;99786.94;5043315;28;20043;-77
2021/09/17 07:56:40;;;;;;;23.85;13.50;;;;;;;23.81;54.01;99796.38;5043188;28;20039;-77
2021/09/17 07:59:05;;;;;;;24.33;11.98;;;;;;;23.86;52.89;99784.81;5040479;28;20025;-77
2021/09/17 08:01:31;;;;;;;21.33;12.20;;;;;;;23.85;53.44;99788.59;5039728;28;20017;-77
2021/09/17 08:03:56;;;;;;;18.48;13.13;;;;;;;23.59;52.69;99768.47;5023230;28;20056;-77
2021/09/17 08:06:21;;;;;;;16.77;12.45;;;;;;;23.64;54.61;99773.94;5040979;28;20025;-77
2021/09/17 08:08:47;;;;;;;23.33;12.45;;;;;;;23.69;53.11;99775.91;5041850;28;20057;-77
2021/09/17 08:11:12;;;;;;;20.27;11.52;;;;;;;23.88;54.16;99769.16;5041668;28;20034;-77
2021/09/17 08:13:38;;;;;;;20.92;10.75;;;;;;;23.85;53.75;99761.56;5042918;28;20059;-77
2021/09/17 08:16:04;;;;;;;15.43;10.35;;;;;;;23.96;52.85;99744.44;5040585;28;20030;-77
2021/09/17 08:18:29;;;;;;;17.58;10.27;;;;;;;24.26;53.05;99751.31;5041033;28;20041;-77
2021/09/17 08:20:58;;;;;;;13.20;10.88;;;;;;;24.51;51.17;99760.59;5023710;28;20018;-77
2021/09/17 08:23:25;;;;;;;15.32;9.85;;;;;;;24.41;50.16;99762.38;5041196;28;20033;-77
2021/09/17 08:25:51;;;;;;;18.95;11.00;;;;;;;24.43;50.52;99741.28;5041252;28;20231;-77
2021/09/17 08:28:21;;;;;;;18.25;11.07;;;;;;;24.58;50.44;99730.63;5039955;28;20103;-77
2021/09/17 08:30:46;;;;;;;16.50;10.13;;;;;;;24.78;49.02;99738.97;5039938;28;20048;-77
2021/09/17 08:33:12;;;;;;;16.85;10.38;;;;;;;24.92;48.59;99744.78;5040239;28;20223;-77
2021/09/17 08:35:37;;;;;;;19.55;9.82;;;;;;;25.07;48.23;99733.34;5039948;28;20052;-78
2021/09/17 08:38:03;;;;;;;16.58;9.98;;;;;;;25.35;46.80;99741.19;5023273;28;20053;-78
2021/09/17 08:40:29;;;;;;;19.10;11.77;;;;;;;25.39;48.58;99736.06;5040998;28;20032;-77
2021/09/17 08:43:00;;;;;;;20.85;10.88;;;;;;;25.10;49.11;99728.22;5040061;28;20384;-78
2021/09/17 08:45:30;;;;;;;23.55;11.50;;;;;;;25.14;48.85;99734.75;5038625;28;20029;-77
2021/09/17 08:47:58;;;;;;;18.27;11.35;;;;;;;25.42;47.39;99714.66;5042226;28;20208;-76
2021/09/17 08:50:24;;;;;;;18.40;11.30;;;;;;;25.84;44.14;99705.75;5040720;28;20332;-76
2021/09/17 08:52:50;;;;;;;26.08;11.20;;;;;;;26.30;43.65;99709.50;5039000;28;20033;-76
2021/09/17 08:55:15;;;;;;;18.10;10.55;;;;;;;26.47;42.38;99706.59;5023066;28;20025;-78
2021/09/17 08:57:45;;;;;;;17.90;11.32;;;;;;;26.30;43.53;99704.09;5040604;28;20269;-77
2021/09/17 09:00:31;;;;;;;29.58;12.23;;;;;;;26.50;42.87;99706.06;5039327;28;20037;-75
2021/09/17 09:02:58;;;;;;;16.90;10.85;;;;;;;26.72;41.46;99706.66;5032050;28;20045;-75
2021/09/17 09:05:31;;;;;;;22.85;12.10;;;;;;;26.57;41.55;99694.97;5038482;28;20528;-76
2021/09/17 09:07:58;;;;;;;17.40;11.25;;;;;;;26.64;41.34;99696.34;5038487;28;20041;-77
2021/09/17 09:10:24;;;;;;;16.55;10.02;;;;;;;26.37;42.32;99688.38;5039799;28;20034;-76
2021/09/17 09:12:52;;;;;;;18.90;10.05;;;;;;;26.70;41.69;99684.41;5039178;28;20072;-75
2021/09/17 09:15:18;;;;;;;18.75;10.05;;;;;;;26.65;40.76;99680.84;5040425;28;20036;-77
2021/09/17 09:17:47;;;;;;;15.00;10.50;;;;;;;26.83;40.40;99674.91;5023950;28;20041;-76
2021/09/17 09:20:31;;;;;;;19.90;11.38;;;;;;;26.58;41.50;99655.84;5037685;28;20380;-75
2021/09/17 09:23:24;;;;;;;17.77;10.27;;;;;;;26.73;41.18;99653.16;5040476;28;20057;-75
2021/09/17 09:25:51;;;;;;;17.48;9.90;;;;;;;26.87;40.00;99650.72;5038830;28;20070;-75
2021/09/17 09:28:22;;;;;;;16.70;9.55;;;;;;;27.11;39.89;99640.19;5039043;28;20044;-75
2021/09/17 09:30:47;;;;;;;15.90;9.30;;;;;;;27.31;39.00;99645.59;5021156;28;20052;-75
2021/09/17 09:33:20;;;;;;;17.48;9.50;;;;;;;27.13;39.84;99627.94;5039828;28;20052;-75
2021/09/17 09:35:45;;;;;;;21.10;9.50;;;;;;;27.10;39.58;99644.00;5036190;28;20323;-75
2021/09/17 09:38:11;;;;;;;15.20;9.50;;;;;;;26.80;39.69;99642.84;5035716;28;20088;-77
2021/09/17 09:40:37;;;;;;;19.33;9.70;;;;;;;26.29;41.05;99620.19;5038822;28;20817;-77
2021/09/17 09:43:03;;;;;;;20.95;9.40;;;;;;;26.39;41.47;99647.41;5038478;28;20315;-75
2021/09/17 09:45:28;;;;;;;15.00;9.40;;;;;;;26.34;41.24;99644.69;5039763;28;20049;-75
2021/09/17 09:47:56;;;;;;;13.18;8.80;;;;;;;26.56;41.49;99634.41;5040246;28;20243;-75
2021/09/17 09:50:27;;;;;;;15.85;9.32;;;;;;;26.60;40.41;99621.91;5038256;28;20303;-75
2021/09/17 09:52:59;;;;;;;21.90;9.18;;;;;;;26.46;40.70;99615.38;5022235;28;20100;-75
2021/09/17 09:55:25;;;;;;;12.95;8.63;;;;;;;26.50;40.77;99611.03;5038557;28;20373;-75
2021/09/17 09:57:52;;;;;;;20.42;9.52;;;;;;;26.66;41.07;99611.88;5039602;28;20045;-75
2021/09/17 10:00:18;;;;;;;14.60;9.02;;;;;;;26.50;40.71;99607.50;5039181;28;20021;-75
2021/09/17 10:02:45;;;;;;;16.50;9.18;;;;;;;26.55;41.25;99605.63;5038542;28;20041;-75
2021/09/17 10:05:15;;;;;;;16.75;9.52;;;;;;;26.59;40.27;99593.13;5037025;28;20242;-77
2021/09/17 10:07:40;;;;;;;16.08;9.52;;;;;;;26.49;40.96;99598.56;5037425;28;20052;-75
2021/09/17 10:10:10;;;;;;;12.48;8.95;;;;;;;26.38;40.61;99591.47;5038742;28;20033;-77
2021/09/17 10:12:36;;;;;;;17.67;9.00;;;;;;;26.46;41.05;99573.84;5038037;28;20038;-75
2021/09/17 10:15:01;;;;;;;14.95;9.55;;;;;;;26.53;40.29;99586.06;5039358;28;20033;-76
2021/09/17 10:17:32;;;;;;;16.00;9.23;;;;;;;26.66;40.29;99595.56;5037847;28;20027;-75
2021/09/17 10:19:59;;;;;;;17.33;9.07;;;;;;;26.70;41.35;99592.03;5038496;28;20342;-75
2021/09/17 10:22:25;;;;;;;13.77;8.75;;;;;;;26.88;38.52;99587.97;5039715;28;20053;-75
2021/09/17 10:25:09;;;;;;;14.30;9.30;;;;;;;26.77;38.93;99570.03;5039542;28;20370;-75
2021/09/17 10:27:36;;;;;;;15.02;9.05;;;;;;;26.89;38.82;99588.78;5038262;28;20034;-76
2021/09/17 10:30:05;;;;;;;13.13;9.38;;;;;;;27.06;38.44;99575.78;5035804;28;20153;-75
2021/09/17 10:32:45;;;;;;;15.10;8.88;;;;;;;27.07;38.96;99579.31;5038642;28;20022;-75
2021/09/17 10:35:22;;;;;;;15.20;9.25;;;;;;;26.91;38.99;99573.84;5039196;28;20045;-75
2021/09/17 10:38:17;;;;;;;13.20;8.77;;;;;;;26.92;38.14;99570.03;5019896;28;20045;-75
2021/09/17 10:40:55;;;;;;;13.00;9.18;;;;;;;27.03;38.63;99577.13;5037564;28;20030;-77
2021/09/17 10:43:22;;;;;;;17.25;9.70;;;;;;;27.17;37.92;99566.53;5037084;28;20056;-75
2021/09/17 10:45:55;;;;;;;18.98;9.60;;;;;;;27.13;36.42;99567.34;5037628;28;20044;-77
2021/09/17 10:48:24;;;;;;;17.80;9.13;;;;;;;27.43;37.53;99566.44;5040419;28;20069;-75
2021/09/17 10:50:52;;;;;;;14.05;8.95;;;;;;;27.23;36.13;99559.97;5039309;28;20037;-75
2021/09/17 10:53:39;;;;;;;15.93;9.60;;;;;;;27.26;37.60;99564.88;5038352;28;20210;-75
2021/09/17 10:56:11;;;;;;;13.68;9.57;;;;;;;27.18;36.39;99560.00;5036034;28;20057;-77
2021/09/17 10:58:36;;;;;;;14.15;8.93;;;;;;;27.65;36.14;99556.06;5038793;28;20052;-77
2021/09/17 11:01:11;;;;;;;16.55;9.90;;;;;;;27.54;35.55;99560.69;5021478;28;20033;-75
2021/09/17 11:03:36;;;;;;;11.90;8.50;;;;;;;27.50;35.24;99545.22;5039262;28;20046;-75
2021/09/17 11:06:25;;;;;;;16.17;9.70;;;;;;;27.45;36.00;99534.34;5038247;28;20040;-75
2021/09/17 11:08:52;;;;;;;17.25;9.80;;;;;;;27.54;36.90;99525.34;5038960;28;20168;-75
2021/09/17 11:11:32;;;;;;;16.27;9.82;;;;;;;27.48;36.87;99517.47;5038853;28;20319;-75
2021/09/17 11:14:04;;;;;;;24.38;9.80;;;;;;;27.42;36.30;99513.97;5039063;28;20369;-75
2021/09/17 11:16:31;;;;;;;12.82;8.82;;;;;;;27.49;35.90;99506.31;5021407;28;20246;-76
2021/09/17 11:19:05;;;;;;;18.77;9.13;;;;;;;27.69;35.73;99515.50;5039083;28;20104;-75
2021/09/17 11:21:32;;;;;;;15.90;8.60;;;;;;;27.57;36.86;99504.94;5036545;28;20033;-75